createdAt,value
2022-08-11T00:01:06.845Z,102011.06
2022-08-11T00:03:43.344Z,102003.09
2022-08-11T00:06:14.112Z,102010.47
2022-08-11T00:08:44.271Z,102012.44
2022-08-11T00:11:13.554Z,102005.28
2022-08-11T00:13:45.760Z,102002.69
2022-08-11T00:16:16.587Z,102007.31
2022-08-11T00:18:48.294Z,102002.88
2022-08-11T00:21:16.541Z,102000.25
2022-08-11T00:23:47.508Z,102004.75
2022-08-11T00:26:17.714Z,102004.81
2022-08-11T00:28:45.724Z,102013.94
2022-08-11T00:31:24.866Z,102014.88
2022-08-11T00:33:54.515Z,102009.50
2022-08-11T00:36:28.824Z,102013.25
2022-08-11T00:39:05.390Z,102007.91
2022-08-11T00:41:40.515Z,102012.69
2022-08-11T00:44:26.659Z,102003.78
2022-08-11T00:47:03.299Z,102004.78
2022-08-11T00:49:44.130Z,102005.03
2022-08-11T00:52:30.707Z,102008.13
2022-08-11T00:55:24.786Z,102012.75
2022-08-11T00:58:30.191Z,102005.66
2022-08-11T01:01:20.925Z,102010.41
2022-08-11T01:04:11.030Z,102011.50
2022-08-11T01:07:09.598Z,102008.16
2022-08-11T01:09:55.979Z,102005.44
2022-08-11T01:12:41.818Z,102014.72
2022-08-11T01:15:56.095Z,102012.00
2022-08-11T01:19:05.865Z,102013.16
2022-08-11T01:22:19.516Z,102010.69
2022-08-11T01:25:29.409Z,102011.78
2022-08-11T01:28:47.461Z,102011.94
2022-08-11T01:31:48.610Z,102007.50
2022-08-11T01:34:58.129Z,102006.63
2022-08-11T01:37:59.034Z,102017.50
2022-08-11T01:40:58.054Z,102015.00
2022-08-11T01:44:27.633Z,102007.91
2022-08-11T01:47:07.068Z,102005.22
2022-08-11T01:50:07.514Z,102003.44
2022-08-11T01:52:44.069Z,102008.81
2022-08-11T01:55:19.230Z,102011.66
2022-08-11T01:57:54.522Z,102006.31
2022-08-11T02:00:28.927Z,102015.56
2022-08-11T02:03:08.463Z,102016.53
2022-08-11T02:06:02.195Z,102013.84
2022-08-11T02:08:50.531Z,102013.84
2022-08-11T02:11:30.418Z,102021.44
2022-08-11T02:14:03.131Z,102017.78
2022-08-11T02:16:48.877Z,102010.63
2022-08-11T02:19:42.618Z,102010.78
2022-08-11T02:22:41.960Z,102015.28
2022-08-11T02:25:22.986Z,102019.00
2022-08-11T02:28:00.401Z,102018.16
2022-08-11T02:30:36.454Z,102013.72
2022-08-11T02:33:25.352Z,102011.16
2022-08-11T02:36:04.654Z,102013.00
2022-08-11T02:38:43.430Z,102012.28
2022-08-11T02:41:38.349Z,102006.91
2022-08-11T02:44:21.366Z,102009.63
2022-08-11T02:46:58.091Z,102014.25
2022-08-11T02:49:59.992Z,102012.56
2022-08-11T02:52:40.600Z,102015.44
2022-08-11T02:55:56.366Z,102012.81
2022-08-11T02:58:27.122Z,102006.63
2022-08-11T03:01:04.256Z,102008.47
2022-08-11T03:03:39.185Z,102006.78
2022-08-11T03:06:13.555Z,102008.69
2022-08-11T03:08:52.743Z,102013.31
2022-08-11T03:12:01.011Z,102006.31
2022-08-11T03:14:56.546Z,102003.63
2022-08-11T03:17:31.687Z,102005.53
2022-08-11T03:20:12.500Z,102008.44
2022-08-11T03:22:52.660Z,101999.44
2022-08-11T03:25:39.183Z,102004.91
2022-08-11T03:28:22.248Z,102014.06
2022-08-11T03:30:56.010Z,102006.94
2022-08-11T03:33:45.967Z,102008.00
2022-08-11T03:37:16.679Z,102005.38
2022-08-11T03:39:57.131Z,102005.38
2022-08-11T03:42:36.023Z,102007.28
2022-08-11T03:45:16.458Z,102006.50
2022-08-11T03:48:01.927Z,102001.06
2022-08-11T03:50:55.687Z,102001.13
2022-08-11T03:53:40.836Z,102002.13
2022-08-11T03:56:38.629Z,102003.84
2022-08-11T03:59:39.923Z,102001.13
2022-08-11T04:02:29.359Z,101998.53
2022-08-11T04:05:34.613Z,102003.97
2022-08-11T04:08:43.511Z,102002.22
2022-08-11T04:11:59.828Z,102006.78
2022-08-11T04:15:06.019Z,102003.22
2022-08-11T04:18:18.702Z,101993.34
2022-08-11T04:21:12.876Z,102002.41
2022-08-11T04:24:37.786Z,101998.81
2022-08-11T04:27:39.061Z,101995.28
2022-08-11T04:30:12.340Z,101989.91
2022-08-11T04:33:14.805Z,101988.91
2022-08-11T04:35:55.632Z,101996.06
2022-08-11T04:38:59.731Z,101988.81
2022-08-11T04:42:14.065Z,101995.09
2022-08-11T04:45:28.645Z,101997.75
2022-08-11T04:48:33.496Z,102002.28
2022-08-11T04:51:40.433Z,101999.50
2022-08-11T04:54:43.821Z,102003.19
2022-08-11T04:57:41.132Z,102002.22
2022-08-11T05:00:28.454Z,102009.44
2022-08-11T05:03:29.021Z,102013.84
2022-08-11T05:06:28.174Z,102010.16
2022-08-11T05:09:27.807Z,102013.72
2022-08-11T05:12:15.314Z,102016.38
2022-08-11T05:15:08.172Z,102013.56
2022-08-11T05:18:00.765Z,102017.00
2022-08-11T05:20:47.834Z,102020.50
2022-08-11T05:23:35.621Z,102027.66
2022-08-11T05:26:47.303Z,102029.16
2022-08-11T05:29:46.256Z,102033.38
2022-08-11T05:32:35.887Z,102028.63
2022-08-11T05:35:07.848Z,102039.19
2022-08-11T05:37:42.608Z,102033.56
2022-08-11T05:40:30.759Z,102043.28
2022-08-11T05:43:19.653Z,102027.72
2022-08-11T05:46:15.798Z,102031.13
2022-08-11T05:49:02.054Z,102030.94
2022-08-11T05:51:55.399Z,102032.50
2022-08-11T05:54:41.647Z,102025.94
2022-08-11T05:57:49.067Z,102028.50
2022-08-11T06:00:03.369Z,102030.06
2022-08-11T06:02:31.561Z,102028.00
2022-08-11T06:05:01.942Z,102024.09
2022-08-11T06:07:49.548Z,102035.59
2022-08-11T06:10:28.026Z,102027.22
2022-08-11T06:12:56.888Z,102032.53
2022-08-11T06:15:28.066Z,102041.31
2022-08-11T06:17:56.800Z,102033.84
2022-08-11T06:20:26.247Z,102024.53
2022-08-11T06:22:58.786Z,102021.56
2022-08-11T06:25:32.794Z,102025.84
2022-08-11T06:28:03.617Z,102027.41
2022-08-11T06:30:40.709Z,102021.59
2022-08-11T06:33:11.465Z,102018.59
2022-08-11T06:35:48.364Z,102020.09
2022-08-11T06:38:27.283Z,102025.31
2022-08-11T06:41:15.293Z,102022.28
2022-08-11T06:43:56.151Z,102022.13
2022-08-11T06:46:32.120Z,102031.91
2022-08-11T06:49:03.572Z,102027.13
2022-08-11T06:51:32.486Z,102020.50
2022-08-11T06:54:05.102Z,102016.50
2022-08-11T06:57:27.934Z,102028.00
2022-08-11T07:00:03.620Z,102030.34
2022-08-11T07:02:39.547Z,102024.53
2022-08-11T07:05:13.511Z,102024.16
2022-08-11T07:08:35.912Z,102030.09
2022-08-11T07:11:51.467Z,102033.38
2022-08-11T07:14:42.874Z,102027.72
2022-08-11T07:17:17.460Z,102034.69
2022-08-11T07:20:10.251Z,102035.34
2022-08-11T07:23:05.026Z,102029.59
2022-08-11T07:25:52.915Z,102030.16
2022-08-11T07:28:42.991Z,102025.34
2022-08-11T07:31:14.866Z,102025.84
2022-08-11T07:34:08.309Z,102027.34
2022-08-11T07:36:40.639Z,102033.31
2022-08-11T07:39:16.426Z,102021.22
2022-08-11T07:41:44.797Z,102016.22
2022-08-11T07:44:13.404Z,102022.09
2022-08-11T07:47:01.124Z,102024.34
2022-08-11T07:49:49.900Z,102013.84
2022-08-11T07:52:29.349Z,102020.75
2022-08-11T07:54:59.950Z,102017.63
2022-08-11T07:57:59.498Z,102010.06
2022-08-11T08:00:55.732Z,102015.00
2022-08-11T08:03:54.603Z,102007.41
2022-08-11T08:06:41.100Z,102004.44
2022-08-11T08:09:28.651Z,101998.81
2022-08-11T08:12:14.670Z,101996.63
2022-08-11T08:15:01.124Z,102005.47
2022-08-11T08:18:09.408Z,102003.16
2022-08-11T08:20:38.475Z,102004.69
2022-08-11T08:23:07.245Z,102008.75
2022-08-11T08:25:39.117Z,102011.00
2022-08-11T08:28:10.516Z,102009.69
2022-08-11T08:30:47.568Z,102012.03
2022-08-11T08:33:18.720Z,102004.38
2022-08-11T08:35:54.357Z,102010.41
2022-08-11T08:38:23.545Z,102005.44
2022-08-11T08:40:56.495Z,102006.78
2022-08-11T08:43:25.620Z,102008.84
2022-08-11T08:45:57.238Z,102010.22
2022-08-11T08:48:26.887Z,102013.38
2022-08-11T08:51:16.455Z,102002.97
2022-08-11T08:53:53.288Z,102011.75
2022-08-11T08:56:28.941Z,102007.69
2022-08-11T08:59:00.518Z,102004.53
2022-08-11T09:01:31.189Z,102003.38
2022-08-11T09:04:07.019Z,102011.16
2022-08-11T09:06:39.794Z,102010.75
2022-08-11T09:09:09.245Z,102008.59
2022-08-11T09:11:53.234Z,102010.78
2022-08-11T09:14:23.660Z,102015.53
2022-08-11T09:16:53.476Z,102009.44
2022-08-11T09:19:22.597Z,102006.97
2022-08-11T09:22:08.941Z,101999.28
2022-08-11T09:24:56.003Z,102009.88
2022-08-11T09:27:26.126Z,101999.53
2022-08-11T09:29:54.971Z,101999.16
2022-08-11T09:32:23.872Z,101997.81
2022-08-11T09:34:54.057Z,101997.53
2022-08-11T09:37:54.081Z,101988.16
2022-08-11T09:40:30.987Z,101986.09
2022-08-11T09:43:21.237Z,101988.38
2022-08-11T09:45:51.834Z,101992.22
2022-08-11T09:48:20.154Z,101984.41
2022-08-11T09:50:53.530Z,101985.19
2022-08-11T09:53:36.256Z,101976.75
2022-08-11T09:56:30.082Z,101985.59
2022-08-11T09:59:00.423Z,101980.59
2022-08-11T10:01:32.628Z,101985.03
2022-08-11T10:04:04.897Z,101980.84
2022-08-11T10:06:54.480Z,101984.88
2022-08-11T10:09:25.527Z,101978.56
2022-08-11T10:11:58.205Z,101968.06
2022-08-11T10:14:46.489Z,101978.84
2022-08-11T10:17:17.048Z,101967.66
2022-08-11T10:20:01.993Z,101964.63
2022-08-11T10:22:52.302Z,101962.06
2022-08-11T10:25:41.194Z,101956.94
2022-08-11T10:28:32.937Z,101947.53
2022-08-11T10:31:18.363Z,101943.47
2022-08-11T10:34:03.758Z,101946.59
2022-08-11T10:36:34.210Z,101944.41
2022-08-11T10:39:04.433Z,101936.94
2022-08-11T10:42:07.347Z,101933.00
2022-08-11T10:44:40.002Z,101935.22
2022-08-11T10:47:29.192Z,101932.94
2022-08-11T10:50:15.969Z,101931.63
2022-08-11T10:53:05.428Z,101919.22
2022-08-11T10:55:50.957Z,101926.09
2022-08-11T10:58:37.295Z,101934.44
2022-08-11T11:01:06.849Z,101916.84
2022-08-11T11:03:37.511Z,101916.94
2022-08-11T11:06:27.464Z,101913.66
2022-08-11T11:09:05.359Z,101904.09
2022-08-11T11:11:55.894Z,101901.34
2022-08-11T11:14:49.814Z,101899.47
2022-08-11T11:17:45.479Z,101900.25
2022-08-11T11:20:36.749Z,101904.53
2022-08-11T11:23:09.307Z,101899.47
2022-08-11T11:26:11.127Z,101908.06
2022-08-11T11:29:16.263Z,101900.94
2022-08-11T11:32:07.119Z,101901.72
2022-08-11T11:34:53.533Z,101901.13
2022-08-11T11:37:24.677Z,101889.25
2022-08-11T11:39:54.134Z,101890.88
2022-08-11T11:42:24.183Z,101888.69
2022-08-11T11:44:55.795Z,101877.97
2022-08-11T11:47:24.899Z,101877.75
2022-08-11T11:49:54.327Z,101870.00
2022-08-11T11:52:24.501Z,101863.28
2022-08-11T11:54:56.638Z,101859.53
2022-08-11T11:57:58.521Z,101863.81
2022-08-11T12:00:45.831Z,101855.56
2022-08-11T12:03:14.369Z,101861.53
2022-08-11T12:05:44.757Z,101870.97
2022-08-11T12:08:16.327Z,101857.44
2022-08-11T12:10:50.233Z,101857.66
2022-08-11T12:13:36.961Z,101853.22
2022-08-11T12:16:33.192Z,101848.00
2022-08-11T12:18:56.538Z,101841.03
2022-08-11T12:21:25.204Z,101844.47
2022-08-11T12:24:14.289Z,101842.69
2022-08-11T12:27:16.744Z,101833.31
2022-08-11T12:29:52.878Z,101837.47
2022-08-11T12:32:25.355Z,101834.59
2022-08-11T12:34:53.848Z,101835.13
2022-08-11T12:37:26.383Z,101835.41
2022-08-11T12:40:49.617Z,101813.00
2022-08-11T12:43:37.397Z,101821.66
2022-08-11T12:46:11.241Z,101813.13
2022-08-11T12:49:03.292Z,101806.88
2022-08-11T12:52:00.906Z,101801.97
2022-08-11T12:54:48.068Z,101796.84
2022-08-11T12:57:38.040Z,101790.88
2022-08-11T13:00:26.287Z,101793.97
2022-08-11T13:03:13.476Z,101789.34
2022-08-11T13:05:45.140Z,101789.88
2022-08-11T13:08:15.583Z,101786.00
2022-08-11T13:11:01.925Z,101783.88
2022-08-11T13:13:53.772Z,101782.50
2022-08-11T13:16:20.564Z,101774.56
2022-08-11T13:18:50.196Z,101775.47
2022-08-11T13:21:20.435Z,101770.75
2022-08-11T13:24:01.354Z,101763.25
2022-08-11T13:26:43.145Z,101772.03
2022-08-11T13:29:20.816Z,101763.28
2022-08-11T13:31:49.299Z,101770.97
2022-08-11T13:34:18.065Z,101768.72
2022-08-11T13:36:48.852Z,101763.41
2022-08-11T13:39:17.722Z,101761.06
2022-08-11T13:41:47.749Z,101766.31
2022-08-11T13:44:23.420Z,101751.78
2022-08-11T13:46:55.198Z,101749.50
2022-08-11T13:49:23.802Z,101748.38
2022-08-11T13:51:53.090Z,101760.41
2022-08-11T13:54:23.810Z,101752.13
2022-08-11T13:56:55.220Z,101750.75
2022-08-11T13:59:29.740Z,101747.13
2022-08-11T14:02:22.318Z,101747.13
2022-08-11T14:04:55.121Z,101738.22
2022-08-11T14:07:23.972Z,101735.13
2022-08-11T14:09:58.573Z,101727.69
2022-08-11T14:12:46.495Z,101740.63
2022-08-11T14:15:20.962Z,101737.75
2022-08-11T14:17:56.242Z,101733.09
2022-08-11T14:20:39.775Z,101726.56
2022-08-11T14:23:11.001Z,101725.44
2022-08-11T14:26:02.937Z,101724.34
2022-08-11T14:28:37.492Z,101719.28
2022-08-11T14:31:11.446Z,101715.91
2022-08-11T14:34:00.751Z,101728.34
2022-08-11T14:36:31.946Z,101718.81
2022-08-11T14:39:00.097Z,101719.81
2022-08-11T14:42:10.992Z,101714.63
2022-08-11T14:44:54.664Z,101709.25
2022-08-11T14:47:25.611Z,101715.41
2022-08-11T14:49:57.976Z,101709.03
2022-08-11T14:52:38.393Z,101706.88
2022-08-11T14:55:26.254Z,101705.38
2022-08-11T14:57:56.716Z,101708.78
2022-08-11T15:00:26.421Z,101699.59
2022-08-11T15:03:11.714Z,101697.34
2022-08-11T15:05:57.705Z,101696.72
2022-08-11T15:08:49.338Z,101696.97
2022-08-11T15:11:39.161Z,101688.59
2022-08-11T15:14:08.930Z,101683.53
2022-08-11T15:16:56.054Z,101684.44
2022-08-11T15:19:40.546Z,101684.19
2022-08-11T15:22:28.462Z,101677.91
2022-08-11T15:24:58.124Z,101682.16
2022-08-11T15:27:49.856Z,101672.91
2022-08-11T15:30:35.463Z,101667.88
2022-08-11T15:33:24.300Z,101665.22
2022-08-11T15:36:11.533Z,101663.84
2022-08-11T15:38:44.974Z,101664.75
2022-08-11T15:41:34.308Z,101667.25
2022-08-11T15:44:51.466Z,101660.47
2022-08-11T15:47:19.094Z,101660.75
2022-08-11T15:50:12.000Z,101650.56
2022-08-11T15:52:48.787Z,101653.06
2022-08-11T15:55:18.169Z,101648.31
2022-08-11T15:58:07.457Z,101651.94
2022-08-11T16:01:01.253Z,101644.53
2022-08-11T16:04:08.175Z,101643.06
2022-08-11T16:06:47.698Z,101647.69
2022-08-11T16:09:21.590Z,101642.25
2022-08-11T16:11:50.760Z,101641.66
2022-08-11T16:14:39.040Z,101640.53
2022-08-11T16:17:09.628Z,101628.97
2022-08-11T16:19:38.484Z,101630.88
2022-08-11T16:22:09.071Z,101627.34
2022-08-11T16:27:07.088Z,101637.97
2022-08-11T16:27:34.166Z,101631.34
2022-08-11T16:30:04.838Z,101639.13
2022-08-11T16:32:34.217Z,101640.84
2022-08-11T16:35:21.749Z,101640.13
2022-08-11T16:38:08.965Z,101636.38
2022-08-11T16:40:40.246Z,101634.59
2022-08-11T16:43:28.322Z,101630.06
2022-08-11T16:46:15.412Z,101621.19
2022-08-11T16:48:47.129Z,101621.44
2022-08-11T16:51:15.452Z,101621.06
2022-08-11T16:53:59.463Z,101617.66
2022-08-11T16:56:38.437Z,101619.03
2022-08-11T16:59:14.772Z,101617.66
2022-08-11T17:01:46.976Z,101614.88
2022-08-11T17:04:39.439Z,101621.69
2022-08-11T17:07:42.023Z,101621.91
2022-08-11T17:10:50.342Z,101621.25
2022-08-11T17:13:26.908Z,101629.28
2022-08-11T17:16:07.633Z,101626.75
2022-08-11T17:18:43.066Z,101620.59
2022-08-11T17:21:15.087Z,101608.94
2022-08-11T17:23:47.978Z,101609.06
2022-08-11T17:26:19.326Z,101611.19
2022-08-11T17:28:52.647Z,101608.91
2022-08-11T17:31:40.579Z,101608.28
2022-08-11T17:34:26.893Z,101614.03
2022-08-11T17:36:56.222Z,101614.28
2022-08-11T17:39:30.217Z,101608.03
2022-08-11T17:42:15.737Z,101609.50
2022-08-11T17:45:03.756Z,101613.59
2022-08-11T17:47:49.914Z,101607.44
2022-08-11T17:50:18.671Z,101614.44
2022-08-11T17:53:05.521Z,101611.13
2022-08-11T17:55:53.596Z,101612.47
2022-08-11T17:58:40.554Z,101620.88
2022-08-11T18:01:12.169Z,101623.63
2022-08-11T18:03:41.902Z,101623.94
2022-08-11T18:06:32.602Z,101623.31
2022-08-11T18:09:22.631Z,101618.16
2022-08-11T18:12:11.954Z,101623.88
2022-08-11T18:15:00.915Z,101635.38
2022-08-11T18:17:48.009Z,101634.94
2022-08-11T18:20:33.725Z,101628.03
2022-08-11T18:23:45.684Z,101628.59
2022-08-11T18:26:30.798Z,101632.69
2022-08-11T18:29:19.284Z,101623.22
2022-08-11T18:32:08.657Z,101626.31
2022-08-11T18:35:00.442Z,101628.75
2022-08-11T18:37:49.861Z,101632.81
2022-08-11T18:40:38.516Z,101628.88
2022-08-11T18:43:27.581Z,101629.53
2022-08-11T18:46:17.894Z,101635.38
2022-08-11T18:49:15.534Z,101631.31
2022-08-11T18:52:17.802Z,101639.19
2022-08-11T18:55:07.474Z,101648.09
2022-08-11T18:58:01.796Z,101642.13
2022-08-11T19:00:48.614Z,101641.72
2022-08-11T19:03:48.833Z,101646.75
2022-08-11T19:06:40.946Z,101655.53
2022-08-11T19:09:31.441Z,101658.56
2022-08-11T19:12:23.733Z,101656.38
2022-08-11T19:15:22.643Z,101652.28
2022-08-11T19:18:09.199Z,101653.66
2022-08-11T19:20:55.853Z,101655.94
2022-08-11T19:23:51.809Z,101669.88
2022-08-11T19:26:39.593Z,101669.41
2022-08-11T19:30:07.644Z,101665.19
2022-08-11T19:35:35.258Z,101673.31
2022-08-11T19:38:22.723Z,101673.38
2022-08-11T19:41:09.392Z,101672.72
2022-08-11T19:43:57.785Z,101674.47
2022-08-11T19:46:44.394Z,101682.03
2022-08-11T19:49:31.920Z,101687.72
2022-08-11T19:52:18.038Z,101683.63
2022-08-11T19:55:04.454Z,101692.38
2022-08-11T19:57:51.039Z,101681.63
2022-08-11T20:00:39.032Z,101684.69
2022-08-11T20:03:26.717Z,101685.75
2022-08-11T20:06:14.750Z,101683.53
2022-08-11T20:09:02.800Z,101678.34
2022-08-11T20:11:51.501Z,101682.25
2022-08-11T20:14:39.322Z,101670.78
2022-08-11T20:17:27.576Z,101680.09
2022-08-11T20:20:13.564Z,101677.75
2022-08-11T20:22:59.690Z,101677.25
2022-08-11T20:25:45.997Z,101685.56
2022-08-11T20:28:33.017Z,101694.28
2022-08-11T20:31:18.151Z,101689.28
2022-08-11T20:34:05.666Z,101692.03
2022-08-11T20:36:54.866Z,101690.78
2022-08-11T20:39:43.221Z,101694.09
2022-08-11T20:42:30.905Z,101693.78
2022-08-11T20:45:18.796Z,101694.84
2022-08-11T20:48:10.035Z,101687.78
2022-08-11T20:51:06.434Z,101690.91
2022-08-11T20:53:55.470Z,101694.69
2022-08-11T20:56:42.778Z,101695.75
2022-08-11T20:59:29.744Z,101698.78
2022-08-11T21:02:18.936Z,101704.53
2022-08-11T21:05:13.162Z,101713.03
2022-08-11T21:08:30.458Z,101699.63
2022-08-11T21:11:27.707Z,101703.56
2022-08-11T21:14:13.865Z,101711.44
2022-08-11T21:17:01.044Z,101716.91
2022-08-11T21:20:15.552Z,101711.09
2022-08-11T21:23:19.947Z,101706.66
2022-08-11T21:26:41.864Z,101704.03
2022-08-11T21:29:28.832Z,101711.00
2022-08-11T21:32:15.993Z,101709.59
2022-08-11T21:35:02.477Z,101705.88
2022-08-11T21:37:50.287Z,101701.66
2022-08-11T21:40:40.798Z,101707.28
2022-08-11T21:43:27.616Z,101707.28
2022-08-11T21:46:16.241Z,101708.44
2022-08-11T21:49:02.995Z,101693.94
2022-08-11T21:51:50.223Z,101715.13
2022-08-11T21:54:36.451Z,101711.91
2022-08-11T21:57:24.905Z,101711.09
2022-08-11T22:00:12.409Z,101704.19
2022-08-11T22:02:58.757Z,101707.94
2022-08-11T22:05:45.385Z,101703.69
2022-08-11T22:08:31.703Z,101692.84
2022-08-11T22:11:32.478Z,101702.94
2022-08-11T22:14:19.824Z,101707.91
2022-08-11T22:17:05.177Z,101700.81
2022-08-11T22:19:52.604Z,101695.44
2022-08-11T22:22:52.552Z,101687.38
2022-08-11T22:25:49.937Z,101694.88
2022-08-11T22:28:37.151Z,101693.13
2022-08-11T22:31:25.403Z,101701.47
2022-08-11T22:34:10.825Z,101696.19
2022-08-11T22:36:57.523Z,101700.91
2022-08-11T22:39:45.018Z,101699.41
2022-08-11T22:42:46.071Z,101694.09
2022-08-11T22:45:31.902Z,101697.97
2022-08-11T22:48:20.325Z,101698.03
2022-08-11T22:51:05.926Z,101694.53
2022-08-11T22:53:58.066Z,101694.69
2022-08-11T22:56:45.147Z,101688.56
2022-08-11T22:59:31.519Z,101682.38
2022-08-11T23:02:17.164Z,101699.97
2022-08-11T23:05:04.447Z,101696.34
2022-08-11T23:07:51.979Z,101697.47
2022-08-11T23:10:38.205Z,101694.03
2022-08-11T23:13:24.031Z,101698.75
2022-08-11T23:16:10.564Z,101699.00
2022-08-11T23:18:57.250Z,101697.47
2022-08-11T23:21:45.971Z,101696.66
2022-08-11T23:24:32.173Z,101691.28
2022-08-11T23:27:18.711Z,101688.69
2022-08-11T23:30:05.918Z,101690.47
2022-08-11T23:32:52.034Z,101687.81
2022-08-11T23:35:51.906Z,101685.25
2022-08-11T23:38:42.086Z,101688.22
2022-08-11T23:41:27.175Z,101681.16
2022-08-11T23:44:13.019Z,101685.00
2022-08-11T23:47:00.338Z,101683.38
2022-08-11T23:49:46.668Z,101680.97
2022-08-11T23:52:33.819Z,101674.97
2022-08-11T23:55:21.474Z,101677.03
2022-08-11T23:58:07.344Z,101675.44
